Terminal Aerodrome Forecast
Issued by NWS Houston/Galveston TX

Home | Current Version | Previous Version | Text Only | Print | Product List | Glossary On
Versions: 1 2 3 4 5 6 7 8 9 10 11 12 13 14 15 16 17 18 19 20 21 22 23 24 25 26 27 28 29 30 31 32 33 34 35 36 37 38 39 40 41 42
000
FTUS44 KHGX 071326 AAB
TAFHOU
TAF AMD
KHOU 071326Z 0713/0812 06006KT 2SM BR BKN002 OVC011
     FM071500 07005KT 4SM BR BKN007 OVC012
     FM071700 02005KT P6SM BKN015 BKN025
     FM071900 16004KT P6SM SCT025 BKN035
     FM080000 07005KT P6SM VCSH SCT015 OVC035
     FM080900 01012KT P6SM OVC012=

USA.gov is the U.S. government's official web portal to all federal, state and local government web resources and services.